createdAt,value
2022-12-15T15:01:57.943Z,100664.75
2022-12-15T15:05:08.702Z,100673.19
2022-12-15T15:08:03.518Z,100662.47
2022-12-15T15:10:54.185Z,100661.53
2022-12-15T15:13:47.515Z,100661.38
2022-12-15T15:16:40.214Z,100664.44
2022-12-15T15:19:39.060Z,100665.97
2022-12-15T15:22:42.872Z,100660.94
2022-12-15T15:25:44.627Z,100647.44
2022-12-15T15:28:44.044Z,100646.28
2022-12-15T15:31:43.740Z,100632.66
2022-12-15T15:34:30.777Z,100645.13
2022-12-15T15:37:31.603Z,100650.88
2022-12-15T15:40:19.866Z,100648.84
2022-12-15T15:43:20.603Z,100643.28
2022-12-15T15:46:20.864Z,100638.44
2022-12-15T15:49:13.486Z,100647.84
2022-12-15T15:52:07.546Z,100640.94
2022-12-15T15:55:01.701Z,100643.97
2022-12-15T15:57:55.611Z,100641.63
2022-12-15T16:01:04.812Z,100660.00
2022-12-15T16:04:01.687Z,100655.75
2022-12-15T16:06:56.604Z,100654.06
2022-12-15T16:09:43.491Z,100659.16
2022-12-15T16:12:48.625Z,100665.22
2022-12-15T16:15:36.574Z,100663.00
2022-12-15T16:18:30.020Z,100654.25
2022-12-15T16:21:20.975Z,100667.53
2022-12-15T16:24:24.611Z,100664.50
2022-12-15T16:27:13.461Z,100659.09
2022-12-15T16:30:06.594Z,100662.16
2022-12-15T16:33:01.999Z,100660.44
2022-12-15T16:35:56.676Z,100666.19
2022-12-15T16:38:51.593Z,100655.41
2022-12-15T16:41:44.600Z,100666.34
2022-12-15T16:44:37.649Z,100671.38
2022-12-15T16:47:30.614Z,100656.91
2022-12-15T16:50:27.682Z,100664.84
2022-12-15T16:53:23.778Z,100663.84
2022-12-15T16:56:22.474Z,100661.34
2022-12-15T16:59:33.034Z,100662.16
2022-12-15T17:02:35.878Z,100665.53
2022-12-15T17:05:26.465Z,100661.13
2022-12-15T17:08:32.015Z,100666.81
2022-12-15T17:11:24.847Z,100655.66
2022-12-15T17:14:18.703Z,100666.81
2022-12-15T17:17:14.635Z,100665.28
2022-12-15T17:23:25.674Z,100671.91
2022-12-15T17:26:30.964Z,100676.63
2022-12-15T17:29:29.643Z,100681.16
2022-12-15T17:32:16.478Z,100668.88
2022-12-15T17:35:09.742Z,100674.91
2022-12-15T17:37:56.744Z,100669.69
2022-12-15T17:40:50.724Z,100677.97
2022-12-15T17:43:38.283Z,100672.38
2022-12-15T17:46:31.724Z,100671.38
2022-12-15T17:49:19.658Z,100644.28
2022-12-15T17:52:33.621Z,100675.25
2022-12-15T17:55:35.280Z,100668.88
2022-12-15T17:58:31.684Z,100664.66
2022-12-15T18:01:31.748Z,100676.13
2022-12-15T18:04:18.683Z,100682.19
2022-12-15T18:07:12.696Z,100683.53
2022-12-15T18:09:59.676Z,100699.53
2022-12-15T18:12:52.675Z,100690.78
2022-12-15T18:15:39.528Z,100687.59
2022-12-15T18:18:32.642Z,100698.72
2022-12-15T18:21:25.691Z,100700.56
2022-12-15T18:24:15.512Z,100704.13
2022-12-15T18:27:08.637Z,100698.91
2022-12-15T18:30:02.651Z,100710.19
2022-12-15T18:32:51.721Z,100717.41
2022-12-15T18:35:47.697Z,100716.75
2022-12-15T18:38:40.706Z,100713.72
2022-12-15T18:41:27.867Z,100710.03
2022-12-15T18:44:29.721Z,100726.22
2022-12-15T18:47:25.716Z,100719.63
2022-12-15T18:50:24.759Z,100737.31
2022-12-15T18:53:28.902Z,100731.94
2022-12-15T18:56:19.479Z,100738.31
2022-12-15T18:59:21.700Z,100732.59
2022-12-15T19:02:25.599Z,100740.84
2022-12-15T19:05:35.714Z,100738.66
2022-12-15T19:08:30.724Z,100735.44
2022-12-15T19:11:38.915Z,100748.94
2022-12-15T19:14:47.747Z,100748.59
2022-12-15T19:17:53.202Z,100766.97
2022-12-15T19:21:04.915Z,100766.13
2022-12-15T19:23:51.752Z,100772.53
2022-12-15T19:26:46.730Z,100774.03
2022-12-15T19:29:33.624Z,100779.94
2022-12-15T19:32:27.893Z,100768.28
2022-12-15T19:35:15.147Z,100772.19
2022-12-15T19:38:10.747Z,100765.28
2022-12-15T19:41:06.766Z,100772.19
2022-12-15T19:43:53.579Z,100773.19
2022-12-15T19:46:48.753Z,100768.81
2022-12-15T19:49:35.642Z,100768.66
2022-12-15T19:52:29.064Z,100755.88
2022-12-15T19:55:18.131Z,100764.94
2022-12-15T19:58:34.749Z,100769.00
2022-12-15T20:01:34.870Z,100768.81
2022-12-15T20:04:28.741Z,100781.13
2022-12-15T20:07:33.687Z,100767.66
2022-12-15T20:10:32.582Z,100768.97
2022-12-15T20:13:27.784Z,100762.91
2022-12-15T20:16:17.840Z,100763.94
2022-12-15T20:19:11.713Z,100761.75
2022-12-15T20:21:58.523Z,100766.28
2022-12-15T20:24:53.756Z,100764.59
2022-12-15T20:27:43.694Z,100773.38
2022-12-15T20:30:41.753Z,100778.44
2022-12-15T20:33:28.917Z,100756.00
2022-12-15T20:36:26.904Z,100776.56
2022-12-15T20:39:26.802Z,100772.53
2022-12-15T20:42:21.743Z,100767.78
2022-12-15T20:45:18.969Z,100766.47
2022-12-15T20:48:12.799Z,100765.44
2022-12-15T20:51:04.245Z,100759.72
2022-12-15T20:54:01.837Z,100770.00
2022-12-15T20:56:55.724Z,100777.44
2022-12-15T20:59:48.776Z,100764.44
2022-12-15T21:02:43.415Z,100779.44
2022-12-15T21:05:37.806Z,100784.00
2022-12-15T21:08:36.760Z,100775.06
2022-12-15T21:11:25.484Z,100770.69
2022-12-15T21:14:29.959Z,100763.56
2022-12-15T21:17:19.639Z,100766.47
2022-12-15T21:20:14.391Z,100767.78
2022-12-15T21:23:02.385Z,100767.63
2022-12-15T21:25:56.755Z,100769.31
2022-12-15T21:28:43.611Z,100779.25
2022-12-15T21:31:36.771Z,100787.16
2022-12-15T21:34:29.951Z,100779.28
2022-12-15T21:37:29.750Z,100782.81
2022-12-15T21:40:29.569Z,100787.69
2022-12-15T21:43:16.563Z,100779.44
2022-12-15T21:46:27.738Z,100786.34
2022-12-15T21:49:20.672Z,100783.28
2022-12-15T21:52:15.745Z,100801.03
2022-12-15T21:55:02.621Z,100798.78
2022-12-15T21:57:55.794Z,100801.31
2022-12-15T22:00:48.832Z,100802.84
2022-12-15T22:03:53.794Z,100794.94
2022-12-15T22:06:45.867Z,100793.09
2022-12-15T22:09:41.803Z,100789.72
2022-12-15T22:12:34.801Z,100796.47
2022-12-15T22:15:22.600Z,100788.03
2022-12-15T22:18:20.810Z,100792.75
2022-12-15T22:21:08.395Z,100802.31
2022-12-15T22:24:01.800Z,100808.88
2022-12-15T22:26:48.874Z,100812.28
2022-12-15T22:29:41.830Z,100804.66
2022-12-15T22:32:36.788Z,100802.66
2022-12-15T22:35:33.127Z,100807.56
2022-12-15T22:38:21.033Z,100814.09
2022-12-15T22:41:24.793Z,100821.50
2022-12-15T22:44:33.038Z,100820.66
2022-12-15T22:47:19.911Z,100828.56
2022-12-15T22:50:15.131Z,100822.66
2022-12-15T22:53:02.002Z,100821.00
2022-12-15T22:55:57.988Z,100825.69
2022-12-15T22:58:47.226Z,100826.88
2022-12-15T23:01:40.853Z,100822.97
2022-12-15T23:04:34.913Z,100829.22
2022-12-15T23:07:27.959Z,100833.41
2022-12-15T23:10:42.867Z,100829.69
2022-12-15T23:13:30.395Z,100829.69
2022-12-15T23:16:27.874Z,100813.84
2022-12-15T23:19:24.121Z,100821.25
2022-12-15T23:22:17.811Z,100826.31
2022-12-15T23:25:05.298Z,100827.63
2022-12-15T23:27:58.868Z,100820.22
2022-12-15T23:30:51.167Z,100824.25
2022-12-15T23:33:44.918Z,100830.50
2022-12-15T23:36:37.891Z,100823.56
2022-12-15T23:39:24.782Z,100826.25
2022-12-15T23:42:17.884Z,100827.44
2022-12-15T23:45:11.952Z,100820.19
2022-12-15T23:47:58.848Z,100832.31
2022-12-15T23:50:51.863Z,100836.00
2022-12-15T23:53:40.350Z,100838.00
2022-12-15T23:56:33.856Z,100847.78
2022-12-15T23:59:27.032Z,100835.81
